sensor_id;sensor_type;location;lat;lon;timestamp;pressure;altitude;pressure_sealevel;temperature;humidity
45253;BME280;63171;50.520;30.486;2022-11-15T00:00:07;100947.84;;;5.08;99.89
45253;BME280;63171;50.520;30.486;2022-11-15T00:01:16;100936.81;;;4.98;99.86
45253;BME280;63171;50.520;30.486;2022-11-15T00:02:27;100933.22;;;5.04;99.93
45253;BME280;63171;50.520;30.486;2022-11-15T00:03:35;100932.50;;;4.97;99.72
45253;BME280;63171;50.520;30.486;2022-11-15T00:04:45;100934.34;;;4.92;99.54
45253;BME280;63171;50.520;30.486;2022-11-15T00:05:54;100936.69;;;5.03;99.65
45253;BME280;63171;50.520;30.486;2022-11-15T00:07:03;100927.78;;;5.15;99.63
45253;BME280;63171;50.520;30.486;2022-11-15T00:08:14;100929.38;;;5.22;99.50
45253;BME280;63171;50.520;30.486;2022-11-15T00:09:24;100926.78;;;5.20;99.50
45253;BME280;63171;50.520;30.486;2022-11-15T00:10:33;100927.78;;;5.15;99.33
45253;BME280;63171;50.520;30.486;2022-11-15T00:11:42;100918.94;;;5.23;99.55
45253;BME280;63171;50.520;30.486;2022-11-15T00:12:51;100933.59;;;5.26;99.30
45253;BME280;63171;50.520;30.486;2022-11-15T00:14:01;100924.06;;;5.26;99.36
45253;BME280;63171;50.520;30.486;2022-11-15T00:15:11;100917.75;;;5.37;99.35
45253;BME280;63171;50.520;30.486;2022-11-15T00:16:20;100917.75;;;5.37;99.40
45253;BME280;63171;50.520;30.486;2022-11-15T00:17:30;100921.94;;;5.05;98.99
45253;BME280;63171;50.520;30.486;2022-11-15T00:18:39;100921.81;;;5.11;99.04
45253;BME280;63171;50.520;30.486;2022-11-15T00:19:48;100904.97;;;5.27;99.07
45253;BME280;63171;50.520;30.486;2022-11-15T00:21:04;100910.97;;;5.29;98.80
45253;BME280;63171;50.520;30.486;2022-11-15T00:22:13;100915.66;;;5.15;98.74
45253;BME280;63171;50.520;30.486;2022-11-15T00:23:24;100909.53;;;5.18;98.75
45253;BME280;63171;50.520;30.486;2022-11-15T00:24:33;100902.47;;;5.24;98.67
45253;BME280;63171;50.520;30.486;2022-11-15T00:25:43;100900.78;;;5.22;98.70
45253;BME280;63171;50.520;30.486;2022-11-15T00:26:52;100896.38;;;5.25;98.47
45253;BME280;63171;50.520;30.486;2022-11-15T00:28:02;100896.25;;;5.30;98.74
45253;BME280;63171;50.520;30.486;2022-11-15T00:29:10;100890.16;;;5.31;98.46
45253;BME280;63171;50.520;30.486;2022-11-15T00:30:20;100893.63;;;5.31;98.18
45253;BME280;63171;50.520;30.486;2022-11-15T00:31:29;100897.16;;;5.29;98.33
45253;BME280;63171;50.520;30.486;2022-11-15T00:32:39;100890.25;;;5.28;98.20
45253;BME280;63171;50.520;30.486;2022-11-15T00:33:48;100887.66;;;5.28;97.81
45253;BME280;63171;50.520;30.486;2022-11-15T00:34:57;100893.56;;;5.33;97.75
45253;BME280;63171;50.520;30.486;2022-11-15T00:36:08;100882.06;;;5.43;97.90
45253;BME280;63171;50.520;30.486;2022-11-15T00:37:19;100883.47;;;5.22;97.59
45253;BME280;63171;50.520;30.486;2022-11-15T00:38:32;100880.66;;;5.30;97.78
45253;BME280;63171;50.520;30.486;2022-11-15T00:39:41;100889.09;;;5.40;97.67
45253;BME280;63171;50.520;30.486;2022-11-15T00:40:51;100879.53;;;5.42;97.84
45253;BME280;63171;50.520;30.486;2022-11-15T00:42:00;100885.44;;;5.47;97.61
45253;BME280;63171;50.520;30.486;2022-11-15T00:43:10;100886.38;;;5.44;97.59
45253;BME280;63171;50.520;30.486;2022-11-15T00:44:18;100878.78;;;5.37;97.25
45253;BME280;63171;50.520;30.486;2022-11-15T00:45:28;100878.41;;;5.16;96.83
45253;BME280;63171;50.520;30.486;2022-11-15T00:46:36;100880.06;;;5.19;96.83
45253;BME280;63171;50.520;30.486;2022-11-15T00:47:46;100878.19;;;5.25;96.80
45253;BME280;63171;50.520;30.486;2022-11-15T00:48:56;100875.25;;;5.03;96.94
45253;BME280;63171;50.520;30.486;2022-11-15T00:50:06;100878.31;;;5.19;96.89
45253;BME280;63171;50.520;30.486;2022-11-15T00:51:15;100879.28;;;5.15;96.73
45253;BME280;63171;50.520;30.486;2022-11-15T00:52:25;100874.53;;;5.32;96.85
45253;BME280;63171;50.520;30.486;2022-11-15T00:53:35;100875.63;;;5.24;96.67
45253;BME280;63171;50.520;30.486;2022-11-15T00:54:45;100870.88;;;5.05;96.40
45253;BME280;63171;50.520;30.486;2022-11-15T00:55:54;100868.31;;;5.04;96.18
45253;BME280;63171;50.520;30.486;2022-11-15T00:57:04;100869.06;;;5.09;96.34
45253;BME280;63171;50.520;30.486;2022-11-15T00:58:13;100870.09;;;5.02;96.13
45253;BME280;63171;50.520;30.486;2022-11-15T00:59:23;100873.50;;;5.04;96.36
45253;BME280;63171;50.520;30.486;2022-11-15T01:00:32;100873.94;;;4.86;96.27
45253;BME280;63171;50.520;30.486;2022-11-15T01:03:43;100867.84;;;4.87;96.36
45253;BME280;63171;50.520;30.486;2022-11-15T01:04:52;100863.47;;;4.50;95.86
45253;BME280;63171;50.520;30.486;2022-11-15T01:06:02;100863.78;;;4.75;96.21
45253;BME280;63171;50.520;30.486;2022-11-15T01:07:11;100859.25;;;4.85;96.35
45253;BME280;63171;50.520;30.486;2022-11-15T01:08:21;100863.09;;;4.68;95.92
45253;BME280;63171;50.520;30.486;2022-11-15T01:09:32;100864.25;;;4.54;95.94
45253;BME280;63171;50.520;30.486;2022-11-15T01:10:42;100864.34;;;4.49;96.02
45253;BME280;63171;50.520;30.486;2022-11-15T01:11:50;100865.97;;;4.53;96.13
45253;BME280;63171;50.520;30.486;2022-11-15T01:13:01;100855.25;;;4.30;95.76
45253;BME280;63171;50.520;30.486;2022-11-15T01:14:10;100864.81;;;4.28;95.99
45253;BME280;63171;50.520;30.486;2022-11-15T01:15:20;100860.69;;;4.59;96.52
45253;BME280;63171;50.520;30.486;2022-11-15T01:16:29;100858.94;;;4.60;96.39
45253;BME280;63171;50.520;30.486;2022-11-15T01:17:39;100844.81;;;4.33;96.10
45253;BME280;63171;50.520;30.486;2022-11-15T01:18:48;100852.16;;;4.11;96.33
45253;BME280;63171;50.520;30.486;2022-11-15T01:19:57;100851.34;;;4.09;96.20
45253;BME280;63171;50.520;30.486;2022-11-15T01:21:08;100849.91;;;4.37;96.59
45253;BME280;63171;50.520;30.486;2022-11-15T01:22:18;100849.31;;;4.65;97.01
45253;BME280;63171;50.520;30.486;2022-11-15T01:23:27;100845.50;;;4.80;97.17
45253;BME280;63171;50.520;30.486;2022-11-15T01:24:38;100842.91;;;4.80;97.12
45253;BME280;63171;50.520;30.486;2022-11-15T01:25:48;100845.69;;;4.72;97.28
45253;BME280;63171;50.520;30.486;2022-11-15T01:26:57;100842.09;;;4.78;97.12
45253;BME280;63171;50.520;30.486;2022-11-15T01:28:07;100836.13;;;4.74;97.30
45253;BME280;63171;50.520;30.486;2022-11-15T01:29:16;100845.59;;;4.77;97.29
45253;BME280;63171;50.520;30.486;2022-11-15T01:30:26;100847.44;;;4.71;97.29
45253;BME280;63171;50.520;30.486;2022-11-15T01:31:35;100836.09;;;4.75;97.53
45253;BME280;63171;50.520;30.486;2022-11-15T01:32:44;100834.28;;;4.79;97.39
45253;BME280;63171;50.520;30.486;2022-11-15T01:33:53;100836.63;;;4.90;97.57
45253;BME280;63171;50.520;30.486;2022-11-15T01:35:04;100840.84;;;4.95;97.67
45253;BME280;63171;50.520;30.486;2022-11-15T01:36:15;100827.91;;;4.92;97.43
45253;BME280;63171;50.520;30.486;2022-11-15T01:37:25;100828.06;;;4.86;97.29
45253;BME280;63171;50.520;30.486;2022-11-15T01:38:34;100816.72;;;4.90;97.45
45253;BME280;63171;50.520;30.486;2022-11-15T01:39:45;100827.00;;;4.93;97.38
45253;BME280;63171;50.520;30.486;2022-11-15T01:40:54;100823.59;;;4.91;97.30
45253;BME280;63171;50.520;30.486;2022-11-15T01:42:04;100814.44;;;4.77;97.34
45253;BME280;63171;50.520;30.486;2022-11-15T01:43:21;100821.50;;;4.71;97.13
45253;BME280;63171;50.520;30.486;2022-11-15T01:44:39;100819.56;;;4.80;97.17
45253;BME280;63171;50.520;30.486;2022-11-15T01:45:51;100818.38;;;4.93;97.41
45253;BME280;63171;50.520;30.486;2022-11-15T01:47:05;100819.03;;;5.02;97.63
45253;BME280;63171;50.520;30.486;2022-11-15T01:48:15;100816.66;;;4.92;97.35
45253;BME280;63171;50.520;30.486;2022-11-15T01:49:26;100820.06;;;4.95;97.09
45253;BME280;63171;50.520;30.486;2022-11-15T01:50:36;100811.03;;;4.74;96.64
45253;BME280;63171;50.520;30.486;2022-11-15T01:51:46;100815.69;;;4.20;96.37
45253;BME280;63171;50.520;30.486;2022-11-15T01:52:55;100818.59;;;4.47;96.61
45253;BME280;63171;50.520;30.486;2022-11-15T01:54:08;100809.53;;;4.64;96.83
45253;BME280;63171;50.520;30.486;2022-11-15T01:55:21;100814.47;;;4.75;96.88
45253;BME280;63171;50.520;30.486;2022-11-15T01:56:36;100809.22;;;4.39;96.53
45253;BME280;63171;50.520;30.486;2022-11-15T01:57:49;100805.31;;;4.60;97.01
45253;BME280;63171;50.520;30.486;2022-11-15T01:59:03;100804.31;;;4.66;97.11
45253;BME280;63171;50.520;30.486;2022-11-15T02:00:14;100801.63;;;4.70;97.11
45253;BME280;63171;50.520;30.486;2022-11-15T02:01:25;100805.69;;;4.81;97.20
45253;BME280;63171;50.520;30.486;2022-11-15T02:02:36;100799.53;;;4.86;97.28
45253;BME280;63171;50.520;30.486;2022-11-15T02:03:50;100804.25;;;5.04;97.31
45253;BME280;63171;50.520;30.486;2022-11-15T02:05:00;100810.22;;;5.10;97.22
45253;BME280;63171;50.520;30.486;2022-11-15T02:06:10;100800.63;;;5.12;97.25
45253;BME280;63171;50.520;30.486;2022-11-15T02:07:20;100799.47;;;5.23;97.28
45253;BME280;63171;50.520;30.486;2022-11-15T02:08:31;100799.38;;;5.26;97.42
45253;BME280;63171;50.520;30.486;2022-11-15T02:09:40;100792.72;;;5.16;96.95
45253;BME280;63171;50.520;30.486;2022-11-15T02:10:52;100797.22;;;5.10;97.05
45253;BME280;63171;50.520;30.486;2022-11-15T02:12:01;100786.94;;;5.05;96.65
45253;BME280;63171;50.520;30.486;2022-11-15T02:13:11;100786.34;;;4.94;96.62
45253;BME280;63171;50.520;30.486;2022-11-15T02:14:20;100792.38;;;4.96;96.53
45253;BME280;63171;50.520;30.486;2022-11-15T02:15:36;100791.94;;;5.13;96.65
45253;BME280;63171;50.520;30.486;2022-11-15T02:16:55;100789.63;;;5.02;96.38
45253;BME280;63171;50.520;30.486;2022-11-15T02:18:10;100790.34;;;5.09;96.56
45253;BME280;63171;50.520;30.486;2022-11-15T02:19:40;100793.69;;;5.12;96.31
45253;BME280;63171;50.520;30.486;2022-11-15T02:21:08;100785.16;;;5.07;96.50
45253;BME280;63171;50.520;30.486;2022-11-15T02:22:28;100792.28;;;4.99;96.07
45253;BME280;63171;50.520;30.486;2022-11-15T02:24:16;100785.91;;;5.12;96.29
45253;BME280;63171;50.520;30.486;2022-11-15T02:25:39;100792.00;;;5.11;96.40
45253;BME280;63171;50.520;30.486;2022-11-15T02:27:28;100786.75;;;5.13;96.15
45253;BME280;63171;50.520;30.486;2022-11-15T02:28:53;100779.09;;;4.72;95.81
45253;BME280;63171;50.520;30.486;2022-11-15T02:30:32;100772.13;;;4.36;95.17
45253;BME280;63171;50.520;30.486;2022-11-15T02:31:48;100780.34;;;4.56;95.67
45253;BME280;63171;50.520;30.486;2022-11-15T02:33:03;100785.81;;;4.81;96.08
45253;BME280;63171;50.520;30.486;2022-11-15T02:34:21;100786.97;;;5.03;96.25
45253;BME280;63171;50.520;30.486;2022-11-15T02:35:37;100787.47;;;4.84;95.79
45253;BME280;63171;50.520;30.486;2022-11-15T02:36:59;100779.16;;;4.69;95.76
45253;BME280;63171;50.520;30.486;2022-11-15T02:38:17;100776.28;;;4.80;96.03
45253;BME280;63171;50.520;30.486;2022-11-15T02:39:35;100774.28;;;4.91;95.89
45253;BME280;63171;50.520;30.486;2022-11-15T02:40:53;100775.81;;;5.00;96.18
45253;BME280;63171;50.520;30.486;2022-11-15T02:42:07;100766.22;;;5.03;96.23
45253;BME280;63171;50.520;30.486;2022-11-15T02:43:40;100776.84;;;4.94;96.01
45253;BME280;63171;50.520;30.486;2022-11-15T02:45:07;100773.03;;;4.72;95.92
45253;BME280;63171;50.520;30.486;2022-11-15T02:46:24;100775.19;;;4.90;96.08
45253;BME280;63171;50.520;30.486;2022-11-15T02:47:57;100764.50;;;5.02;96.38
45253;BME280;63171;50.520;30.486;2022-11-15T02:49:11;100766.41;;;4.96;96.03
45253;BME280;63171;50.520;30.486;2022-11-15T02:50:21;100764.13;;;4.84;95.96
45253;BME280;63171;50.520;30.486;2022-11-15T02:51:33;100765.44;;;5.00;96.07
45253;BME280;63171;50.520;30.486;2022-11-15T02:52:45;100761.72;;;5.10;96.38
45253;BME280;63171;50.520;30.486;2022-11-15T02:53:55;100763.97;;;5.24;96.48
45253;BME280;63171;50.520;30.486;2022-11-15T02:55:04;100760.06;;;5.08;96.30
45253;BME280;63171;50.520;30.486;2022-11-15T02:56:14;100758.41;;;5.03;96.21
45253;BME280;63171;50.520;30.486;2022-11-15T02:57:30;100755.44;;;5.19;96.35
45253;BME280;63171;50.520;30.486;2022-11-15T02:59:07;100754.13;;;5.02;95.87
45253;BME280;63171;50.520;30.486;2022-11-15T03:00:20;100757.44;;;4.73;95.90
45253;BME280;63171;50.520;30.486;2022-11-15T03:01:38;100754.50;;;4.87;95.82
45253;BME280;63171;50.520;30.486;2022-11-15T03:03:13;100754.84;;;5.09;96.01
45253;BME280;63171;50.520;30.486;2022-11-15T03:04:35;100757.38;;;5.11;96.23
45253;BME280;63171;50.520;30.486;2022-11-15T03:05:51;100753.13;;;5.07;96.13
45253;BME280;63171;50.520;30.486;2022-11-15T03:07:10;100741.81;;;4.75;95.97
45253;BME280;63171;50.520;30.486;2022-11-15T03:08:26;100747.66;;;4.85;95.92
45253;BME280;63171;50.520;30.486;2022-11-15T03:09:42;100746.50;;;4.61;95.48
45253;BME280;63171;50.520;30.486;2022-11-15T03:11:03;100737.69;;;4.68;95.80
45253;BME280;63171;50.520;30.486;2022-11-15T03:12:17;100741.09;;;4.70;95.95
45253;BME280;63171;50.520;30.486;2022-11-15T03:13:35;100735.91;;;4.70;95.88
45253;BME280;63171;50.520;30.486;2022-11-15T03:14:52;100729.53;;;4.83;96.36
45253;BME280;63171;50.520;30.486;2022-11-15T03:16:06;100728.25;;;4.64;95.91
45253;BME280;63171;50.520;30.486;2022-11-15T03:17:22;100733.34;;;4.67;96.08
45253;BME280;63171;50.520;30.486;2022-11-15T03:18:35;100735.94;;;4.68;96.27
45253;BME280;63171;50.520;30.486;2022-11-15T03:19:47;100722.09;;;4.69;96.27
45253;BME280;63171;50.520;30.486;2022-11-15T03:21:00;100733.47;;;4.62;96.06
45253;BME280;63171;50.520;30.486;2022-11-15T03:22:13;100723.78;;;4.70;96.39
45253;BME280;63171;50.520;30.486;2022-11-15T03:23:26;100723.53;;;4.81;96.58
45253;BME280;63171;50.520;30.486;2022-11-15T03:24:38;100724.34;;;4.83;96.42
45253;BME280;63171;50.520;30.486;2022-11-15T03:25:50;100727.19;;;4.72;96.39
45253;BME280;63171;50.520;30.486;2022-11-15T03:27:02;100722.78;;;4.76;96.47
45253;BME280;63171;50.520;30.486;2022-11-15T03:28:16;100715.28;;;4.64;96.57
45253;BME280;63171;50.520;30.486;2022-11-15T03:29:31;100716.81;;;4.72;96.70
45253;BME280;63171;50.520;30.486;2022-11-15T03:30:42;100711.97;;;4.59;96.52
45253;BME280;63171;50.520;30.486;2022-11-15T03:31:58;100716.53;;;4.48;96.34
45253;BME280;63171;50.520;30.486;2022-11-15T03:33:11;100709.94;;;4.34;96.53
45253;BME280;63171;50.520;30.486;2022-11-15T03:34:26;100715.56;;;4.52;96.84
45253;BME280;63171;50.520;30.486;2022-11-15T03:35:39;100712.09;;;4.54;96.88
45253;BME280;63171;50.520;30.486;2022-11-15T03:36:51;100709.41;;;4.57;96.90
45253;BME280;63171;50.520;30.486;2022-11-15T03:38:05;100707.97;;;4.81;97.43
45253;BME280;63171;50.520;30.486;2022-11-15T03:39:19;100699.19;;;4.85;97.45
45253;BME280;63171;50.520;30.486;2022-11-15T03:40:33;100704.47;;;4.82;97.41
45253;BME280;63171;50.520;30.486;2022-11-15T03:41:48;100706.72;;;4.96;97.74
45253;BME280;63171;50.520;30.486;2022-11-15T03:43:03;100703.09;;;5.01;97.76
45253;BME280;63171;50.520;30.486;2022-11-15T03:44:18;100705.81;;;4.97;97.71
45253;BME280;63171;50.520;30.486;2022-11-15T03:45:31;100702.44;;;4.93;97.67
45253;BME280;63171;50.520;30.486;2022-11-15T03:46:47;100697.75;;;5.08;97.64
45253;BME280;63171;50.520;30.486;2022-11-15T03:48:02;100702.81;;;5.12;98.08
45253;BME280;63171;50.520;30.486;2022-11-15T03:49:21;100694.94;;;4.83;97.54
45253;BME280;63171;50.520;30.486;2022-11-15T03:50:33;100686.94;;;4.90;97.58
45253;BME280;63171;50.520;30.486;2022-11-15T03:51:43;100687.88;;;4.88;97.78
45253;BME280;63171;50.520;30.486;2022-11-15T03:52:54;100683.53;;;4.88;97.71
45253;BME280;63171;50.520;30.486;2022-11-15T03:54:04;100684.66;;;4.78;97.44
45253;BME280;63171;50.520;30.486;2022-11-15T03:55:16;100676.78;;;4.83;97.60
45253;BME280;63171;50.520;30.486;2022-11-15T03:56:27;100683.75;;;4.79;97.41
45253;BME280;63171;50.520;30.486;2022-11-15T03:57:36;100679.41;;;4.81;97.60
45253;BME280;63171;50.520;30.486;2022-11-15T03:58:45;100681.59;;;4.62;97.44
45253;BME280;63171;50.520;30.486;2022-11-15T03:59:54;100679.91;;;4.61;97.42
45253;BME280;63171;50.520;30.486;2022-11-15T04:01:04;100680.63;;;4.68;97.60
45253;BME280;63171;50.520;30.486;2022-11-15T04:02:13;100685.50;;;4.79;97.44
45253;BME280;63171;50.520;30.486;2022-11-15T04:03:23;100671.69;;;4.78;97.50
45253;BME280;63171;50.520;30.486;2022-11-15T04:04:33;100680.56;;;4.69;97.57
45253;BME280;63171;50.520;30.486;2022-11-15T04:05:43;100687.72;;;4.60;97.65
45253;BME280;63171;50.520;30.486;2022-11-15T04:06:52;100687.59;;;4.64;97.64
45253;BME280;63171;50.520;30.486;2022-11-15T04:08:02;100683.19;;;4.68;97.63
45253;BME280;63171;50.520;30.486;2022-11-15T04:09:11;100682.28;;;4.70;97.80
45253;BME280;63171;50.520;30.486;2022-11-15T04:10:21;100678.97;;;4.64;97.64
45253;BME280;63171;50.520;30.486;2022-11-15T04:11:30;100676.19;;;4.71;97.50
45253;BME280;63171;50.520;30.486;2022-11-15T04:12:42;100667.94;;;4.56;97.51
45253;BME280;63171;50.520;30.486;2022-11-15T04:13:51;100672.88;;;4.65;97.77
45253;BME280;63171;50.520;30.486;2022-11-15T04:15:03;100675.47;;;4.65;97.67
45253;BME280;63171;50.520;30.486;2022-11-15T04:16:15;100679.22;;;4.55;97.71
45253;BME280;63171;50.520;30.486;2022-11-15T04:17:25;100672.56;;;4.43;97.74
45253;BME280;63171;50.520;30.486;2022-11-15T04:18:34;100664.63;;;4.49;98.04
45253;BME280;63171;50.520;30.486;2022-11-15T04:19:45;100673.94;;;4.58;97.85
45253;BME280;63171;50.520;30.486;2022-11-15T04:21:13;100667.72;;;4.63;97.95
45253;BME280;63171;50.520;30.486;2022-11-15T04:22:36;100667.63;;;4.68;98.03
45253;BME280;63171;50.520;30.486;2022-11-15T04:24:06;100664.25;;;4.64;98.12
45253;BME280;63171;50.520;30.486;2022-11-15T04:25:21;100665.72;;;4.74;98.20
45253;BME280;63171;50.520;30.486;2022-11-15T04:26:30;100667.50;;;4.72;98.09
45253;BME280;63171;50.520;30.486;2022-11-15T04:27:40;100664.56;;;4.86;98.41
45253;BME280;63171;50.520;30.486;2022-11-15T04:28:49;100664.97;;;5.03;98.72
45253;BME280;63171;50.520;30.486;2022-11-15T04:30:17;100672.78;;;5.02;98.71
45253;BME280;63171;50.520;30.486;2022-11-15T04:31:27;100660.28;;;5.16;98.87
45253;BME280;63171;50.520;30.486;2022-11-15T04:32:37;100663.16;;;5.05;98.87
45253;BME280;63171;50.520;30.486;2022-11-15T04:33:47;100652.59;;;5.13;98.74
45253;BME280;63171;50.520;30.486;2022-11-15T04:34:57;100660.13;;;5.22;98.96
45253;BME280;63171;50.520;30.486;2022-11-15T04:36:07;100659.63;;;5.10;98.62
45253;BME280;63171;50.520;30.486;2022-11-15T04:37:34;100662.63;;;4.94;98.50
45253;BME280;63171;50.520;30.486;2022-11-15T04:38:44;100663.53;;;4.92;98.29
45253;BME280;63171;50.520;30.486;2022-11-15T04:39:53;100664.34;;;4.95;98.42
45253;BME280;63171;50.520;30.486;2022-11-15T04:41:03;100658.47;;;4.87;98.55
45253;BME280;63171;50.520;30.486;2022-11-15T04:42:12;100655.16;;;4.81;98.46
45253;BME280;63171;50.520;30.486;2022-11-15T04:43:22;100647.47;;;4.78;98.32
45253;BME280;63171;50.520;30.486;2022-11-15T04:44:30;100650.69;;;4.87;98.66
45253;BME280;63171;50.520;30.486;2022-11-15T04:45:40;100652.44;;;4.87;98.66
45253;BME280;63171;50.520;30.486;2022-11-15T04:46:49;100650.81;;;4.83;98.37
45253;BME280;63171;50.520;30.486;2022-11-15T04:47:58;100649.66;;;4.93;98.39
45253;BME280;63171;50.520;30.486;2022-11-15T04:49:07;100642.34;;;5.09;98.80
45253;BME280;63171;50.520;30.486;2022-11-15T04:50:18;100642.34;;;5.07;98.50
45253;BME280;63171;50.520;30.486;2022-11-15T04:51:28;100635.78;;;4.95;98.58
45253;BME280;63171;50.520;30.486;2022-11-15T04:52:37;100638.06;;;4.73;98.36
45253;BME280;63171;50.520;30.486;2022-11-15T04:53:47;100636.69;;;4.60;98.24
45253;BME280;63171;50.520;30.486;2022-11-15T04:54:56;100635.13;;;4.87;98.41
45253;BME280;63171;50.520;30.486;2022-11-15T04:56:06;100638.75;;;4.82;98.55
45253;BME280;63171;50.520;30.486;2022-11-15T04:57:15;100633.25;;;4.92;98.67
45253;BME280;63171;50.520;30.486;2022-11-15T04:58:25;100640.66;;;4.73;98.44
45253;BME280;63171;50.520;30.486;2022-11-15T04:59:34;100643.41;;;4.69;98.41
45253;BME280;63171;50.520;30.486;2022-11-15T05:00:43;100638.03;;;4.75;98.35
45253;BME280;63171;50.520;30.486;2022-11-15T05:01:53;100630.97;;;4.80;98.83
45253;BME280;63171;50.520;30.486;2022-11-15T05:03:02;100634.47;;;4.79;98.76
45253;BME280;63171;50.520;30.486;2022-11-15T05:04:30;100634.41;;;4.82;98.56
45253;BME280;63171;50.520;30.486;2022-11-15T05:05:41;100629.53;;;4.70;98.56
45253;BME280;63171;50.520;30.486;2022-11-15T05:06:51;100627.59;;;4.77;98.72
45253;BME280;63171;50.520;30.486;2022-11-15T05:08:00;100625.69;;;4.85;98.65
45253;BME280;63171;50.520;30.486;2022-11-15T05:09:09;100627.13;;;4.95;98.89
45253;BME280;63171;50.520;30.486;2022-11-15T05:10:21;100629.66;;;4.98;98.86
45253;BME280;63171;50.520;30.486;2022-11-15T05:11:30;100623.75;;;4.91;98.92
45253;BME280;63171;50.520;30.486;2022-11-15T05:12:39;100616.25;;;4.82;98.91
45253;BME280;63171;50.520;30.486;2022-11-15T05:13:48;100630.19;;;4.77;98.95
45253;BME280;63171;50.520;30.486;2022-11-15T05:14:58;100616.94;;;4.87;98.90
45253;BME280;63171;50.520;30.486;2022-11-15T05:16:07;100621.09;;;4.93;99.06
45253;BME280;63171;50.520;30.486;2022-11-15T05:17:17;100620.16;;;4.97;99.24
45253;BME280;63171;50.520;30.486;2022-11-15T05:18:25;100621.06;;;4.96;99.00
45253;BME280;63171;50.520;30.486;2022-11-15T05:19:35;100616.88;;;4.90;99.09
45253;BME280;63171;50.520;30.486;2022-11-15T05:20:46;100621.94;;;4.95;98.89
45253;BME280;63171;50.520;30.486;2022-11-15T05:21:56;100618.41;;;4.97;99.03
45253;BME280;63171;50.520;30.486;2022-11-15T05:23:05;100620.47;;;4.85;98.82
45253;BME280;63171;50.520;30.486;2022-11-15T05:24:15;100616.63;;;4.99;99.05
45253;BME280;63171;50.520;30.486;2022-11-15T05:25:24;100625.94;;;5.07;99.00
45253;BME280;63171;50.520;30.486;2022-11-15T05:26:34;100610.34;;;5.07;99.09
45253;BME280;63171;50.520;30.486;2022-11-15T05:27:43;100617.00;;;4.86;98.82
45253;BME280;63171;50.520;30.486;2022-11-15T05:28:53;100608.47;;;4.81;98.83
45253;BME280;63171;50.520;30.486;2022-11-15T05:30:02;100611.03;;;4.82;98.71
45253;BME280;63171;50.520;30.486;2022-11-15T05:31:14;100612.75;;;4.83;98.40
45253;BME280;63171;50.520;30.486;2022-11-15T05:32:23;100608.78;;;4.70;98.59
45253;BME280;63171;50.520;30.486;2022-11-15T05:33:34;100615.75;;;4.68;98.69
45253;BME280;63171;50.520;30.486;2022-11-15T05:34:44;100615.56;;;4.74;98.74
45253;BME280;63171;50.520;30.486;2022-11-15T05:36:00;100610.75;;;4.60;98.41
45253;BME280;63171;50.520;30.486;2022-11-15T05:37:09;100615.84;;;4.63;98.46
45253;BME280;63171;50.520;30.486;2022-11-15T05:38:19;100610.16;;;4.49;98.65
45253;BME280;63171;50.520;30.486;2022-11-15T05:39:28;100616.19;;;4.50;98.38
45253;BME280;63171;50.520;30.486;2022-11-15T05:40:38;100612.44;;;4.27;98.36
45253;BME280;63171;50.520;30.486;2022-11-15T05:41:50;100606.13;;;4.03;98.02
45253;BME280;63171;50.520;30.486;2022-11-15T05:43:02;100605.78;;;4.17;98.44
45253;BME280;63171;50.520;30.486;2022-11-15T05:44:14;100610.97;;;4.17;98.47
45253;BME280;63171;50.520;30.486;2022-11-15T05:45:26;100599.41;;;4.30;98.73
45253;BME280;63171;50.520;30.486;2022-11-15T05:46:37;100602.34;;;4.17;98.71
45253;BME280;63171;50.520;30.486;2022-11-15T05:47:48;100600.59;;;4.17;98.61
45253;BME280;63171;50.520;30.486;2022-11-15T05:48:57;100603.84;;;4.25;98.88
45253;BME280;63171;50.520;30.486;2022-11-15T05:50:11;100598.59;;;4.28;98.96
45253;BME280;63171;50.520;30.486;2022-11-15T05:51:23;100604.34;;;4.41;99.16
45253;BME280;63171;50.520;30.486;2022-11-15T05:52:33;100597.19;;;4.49;99.33
45253;BME280;63171;50.520;30.486;2022-11-15T05:53:44;100592.75;;;4.54;99.50
45253;BME280;63171;50.520;30.486;2022-11-15T05:54:55;100595.31;;;4.56;99.52
45253;BME280;63171;50.520;30.486;2022-11-15T05:56:05;100595.44;;;4.50;99.50
45253;BME280;63171;50.520;30.486;2022-11-15T05:57:15;100592.66;;;4.57;99.37
45253;BME280;63171;50.520;30.486;2022-11-15T05:58:25;100588.06;;;4.68;99.67
45253;BME280;63171;50.520;30.486;2022-11-15T05:59:34;100588.28;;;4.59;99.72
45253;BME280;63171;50.520;30.486;2022-11-15T06:00:45;100591.16;;;4.49;99.35
45253;BME280;63171;50.520;30.486;2022-11-15T06:01:54;100586.13;;;4.42;99.36
45253;BME280;63171;50.520;30.486;2022-11-15T06:03:04;100594.81;;;4.41;99.57
45253;BME280;63171;50.520;30.486;2022-11-15T06:04:14;100590.19;;;4.53;99.75
45253;BME280;63171;50.520;30.486;2022-11-15T06:05:24;100589.94;;;4.62;99.90
45253;BME280;63171;50.520;30.486;2022-11-15T06:06:35;100582.94;;;4.65;99.57
45253;BME280;63171;50.520;30.486;2022-11-15T06:07:44;100585.41;;;4.70;99.91
45253;BME280;63171;50.520;30.486;2022-11-15T06:08:54;100581.75;;;4.77;99.76
45253;BME280;63171;50.520;30.486;2022-11-15T06:10:04;100576.47;;;4.80;100.00
45253;BME280;63171;50.520;30.486;2022-11-15T06:11:13;100584.34;;;4.77;99.61
45253;BME280;63171;50.520;30.486;2022-11-15T06:12:23;100589.09;;;4.61;99.88
45253;BME280;63171;50.520;30.486;2022-11-15T06:13:32;100582.03;;;4.68;99.89
45253;BME280;63171;50.520;30.486;2022-11-15T06:14:42;100575.28;;;4.61;99.81
45253;BME280;63171;50.520;30.486;2022-11-15T06:15:55;100588.25;;;4.61;99.75
45253;BME280;63171;50.520;30.486;2022-11-15T06:17:03;100581.97;;;4.69;99.73
45253;BME280;63171;50.520;30.486;2022-11-15T06:18:13;100579.38;;;4.69;99.82
45253;BME280;63171;50.520;30.486;2022-11-15T06:19:22;100581.19;;;4.66;100.00